sensor_id;sensor_type;location;lat;lon;timestamp;P1;durP1;ratioP1;P2;durP2;ratioP2
14060;SDS011;7105;43.616;1.434;2023-04-24T00:00:03;5.00;;;2.30;;
14060;SDS011;7105;43.616;1.434;2023-04-24T00:02:38;5.43;;;2.70;;
14060;SDS011;7105;43.616;1.434;2023-04-24T00:05:04;4.23;;;2.40;;
14060;SDS011;7105;43.616;1.434;2023-04-24T00:07:31;6.50;;;2.63;;
14060;SDS011;7105;43.616;1.434;2023-04-24T00:09:57;7.43;;;3.00;;
14060;SDS011;7105;43.616;1.434;2023-04-24T00:12:23;6.27;;;3.10;;
14060;SDS011;7105;43.616;1.434;2023-04-24T00:14:49;7.60;;;3.07;;
14060;SDS011;7105;43.616;1.434;2023-04-24T00:17:15;7.80;;;3.37;;
14060;SDS011;7105;43.616;1.434;2023-04-24T00:19:40;6.23;;;3.13;;
14060;SDS011;7105;43.616;1.434;2023-04-24T00:22:06;8.37;;;3.13;;
14060;SDS011;7105;43.616;1.434;2023-04-24T00:24:32;7.90;;;3.53;;
14060;SDS011;7105;43.616;1.434;2023-04-24T00:26:57;10.50;;;4.10;;
14060;SDS011;7105;43.616;1.434;2023-04-24T00:29:24;8.37;;;4.07;;
14060;SDS011;7105;43.616;1.434;2023-04-24T00:31:50;7.83;;;3.87;;
14060;SDS011;7105;43.616;1.434;2023-04-24T00:34:15;8.13;;;4.50;;
14060;SDS011;7105;43.616;1.434;2023-04-24T00:36:41;8.37;;;4.00;;
14060;SDS011;7105;43.616;1.434;2023-04-24T00:39:07;10.87;;;5.17;;
14060;SDS011;7105;43.616;1.434;2023-04-24T00:41:35;7.63;;;4.20;;
14060;SDS011;7105;43.616;1.434;2023-04-24T00:44:01;7.93;;;4.40;;
14060;SDS011;7105;43.616;1.434;2023-04-24T00:46:27;6.93;;;4.03;;
14060;SDS011;7105;43.616;1.434;2023-04-24T00:48:53;9.70;;;4.90;;
14060;SDS011;7105;43.616;1.434;2023-04-24T00:51:21;10.13;;;5.50;;
14060;SDS011;7105;43.616;1.434;2023-04-24T00:53:46;8.50;;;5.30;;
14060;SDS011;7105;43.616;1.434;2023-04-24T00:56:12;10.63;;;5.80;;
14060;SDS011;7105;43.616;1.434;2023-04-24T00:58:38;9.97;;;6.07;;
14060;SDS011;7105;43.616;1.434;2023-04-24T01:01:06;9.53;;;6.33;;
14060;SDS011;7105;43.616;1.434;2023-04-24T01:03:32;10.90;;;7.47;;
14060;SDS011;7105;43.616;1.434;2023-04-24T01:05:58;12.27;;;7.43;;
14060;SDS011;7105;43.616;1.434;2023-04-24T01:08:24;12.83;;;8.10;;
14060;SDS011;7105;43.616;1.434;2023-04-24T01:10:52;16.00;;;8.07;;
14060;SDS011;7105;43.616;1.434;2023-04-24T01:13:20;11.27;;;6.63;;
14060;SDS011;7105;43.616;1.434;2023-04-24T01:15:46;10.07;;;5.80;;
14060;SDS011;7105;43.616;1.434;2023-04-24T01:18:12;9.97;;;6.00;;
14060;SDS011;7105;43.616;1.434;2023-04-24T01:20:40;9.57;;;5.57;;
14060;SDS011;7105;43.616;1.434;2023-04-24T01:23:07;8.47;;;5.33;;
14060;SDS011;7105;43.616;1.434;2023-04-24T01:25:33;8.07;;;4.80;;
14060;SDS011;7105;43.616;1.434;2023-04-24T01:28:00;7.53;;;4.40;;
14060;SDS011;7105;43.616;1.434;2023-04-24T01:30:26;8.50;;;4.00;;
14060;SDS011;7105;43.616;1.434;2023-04-24T01:32:52;5.07;;;3.53;;
14060;SDS011;7105;43.616;1.434;2023-04-24T01:35:19;6.77;;;3.40;;
14060;SDS011;7105;43.616;1.434;2023-04-24T01:37:45;6.87;;;3.00;;
14060;SDS011;7105;43.616;1.434;2023-04-24T01:40:11;10.03;;;3.37;;
14060;SDS011;7105;43.616;1.434;2023-04-24T01:42:37;6.57;;;2.93;;
14060;SDS011;7105;43.616;1.434;2023-04-24T01:45:03;8.87;;;3.37;;
14060;SDS011;7105;43.616;1.434;2023-04-24T01:47:30;7.00;;;3.20;;
14060;SDS011;7105;43.616;1.434;2023-04-24T01:49:57;7.00;;;2.70;;
14060;SDS011;7105;43.616;1.434;2023-04-24T01:52:23;6.60;;;2.73;;
14060;SDS011;7105;43.616;1.434;2023-04-24T01:54:48;6.60;;;2.80;;
14060;SDS011;7105;43.616;1.434;2023-04-24T01:57:14;6.77;;;2.50;;
14060;SDS011;7105;43.616;1.434;2023-04-24T01:59:41;7.87;;;3.07;;
14060;SDS011;7105;43.616;1.434;2023-04-24T02:02:06;7.83;;;2.73;;
14060;SDS011;7105;43.616;1.434;2023-04-24T02:04:32;6.47;;;2.67;;
14060;SDS011;7105;43.616;1.434;2023-04-24T02:06:58;7.07;;;2.60;;
14060;SDS011;7105;43.616;1.434;2023-04-24T02:09:23;5.10;;;2.53;;
14060;SDS011;7105;43.616;1.434;2023-04-24T02:11:49;6.40;;;2.70;;
14060;SDS011;7105;43.616;1.434;2023-04-24T02:14:15;7.00;;;3.07;;
14060;SDS011;7105;43.616;1.434;2023-04-24T02:16:41;7.60;;;2.83;;
14060;SDS011;7105;43.616;1.434;2023-04-24T02:19:07;7.50;;;2.50;;
14060;SDS011;7105;43.616;1.434;2023-04-24T02:21:33;8.23;;;2.53;;
14060;SDS011;7105;43.616;1.434;2023-04-24T02:23:59;8.57;;;2.40;;
14060;SDS011;7105;43.616;1.434;2023-04-24T02:26:25;8.00;;;2.60;;
14060;SDS011;7105;43.616;1.434;2023-04-24T02:28:51;4.63;;;2.20;;
14060;SDS011;7105;43.616;1.434;2023-04-24T02:31:17;5.73;;;2.33;;
14060;SDS011;7105;43.616;1.434;2023-04-24T02:33:42;8.63;;;2.53;;
14060;SDS011;7105;43.616;1.434;2023-04-24T02:36:08;5.97;;;2.63;;
14060;SDS011;7105;43.616;1.434;2023-04-24T02:38:33;5.43;;;2.30;;
14060;SDS011;7105;43.616;1.434;2023-04-24T02:40:59;6.33;;;2.50;;
14060;SDS011;7105;43.616;1.434;2023-04-24T02:43:26;6.47;;;2.37;;
14060;SDS011;7105;43.616;1.434;2023-04-24T02:45:52;6.10;;;2.20;;
14060;SDS011;7105;43.616;1.434;2023-04-24T02:48:18;8.00;;;2.47;;
14060;SDS011;7105;43.616;1.434;2023-04-24T02:50:45;7.53;;;2.60;;
14060;SDS011;7105;43.616;1.434;2023-04-24T02:53:11;7.37;;;2.37;;
14060;SDS011;7105;43.616;1.434;2023-04-24T02:55:37;6.77;;;2.60;;
14060;SDS011;7105;43.616;1.434;2023-04-24T02:58:02;6.43;;;2.23;;
14060;SDS011;7105;43.616;1.434;2023-04-24T03:00:28;6.17;;;2.40;;
14060;SDS011;7105;43.616;1.434;2023-04-24T03:02:54;5.80;;;2.00;;
14060;SDS011;7105;43.616;1.434;2023-04-24T03:05:19;8.30;;;2.27;;
14060;SDS011;7105;43.616;1.434;2023-04-24T03:07:45;6.17;;;2.20;;
14060;SDS011;7105;43.616;1.434;2023-04-24T03:10:11;3.80;;;2.10;;
14060;SDS011;7105;43.616;1.434;2023-04-24T03:12:36;6.67;;;2.20;;
14060;SDS011;7105;43.616;1.434;2023-04-24T03:15:02;5.23;;;2.00;;
14060;SDS011;7105;43.616;1.434;2023-04-24T03:17:28;5.23;;;2.00;;
14060;SDS011;7105;43.616;1.434;2023-04-24T03:19:54;6.93;;;1.90;;
14060;SDS011;7105;43.616;1.434;2023-04-24T03:22:19;4.60;;;2.10;;
14060;SDS011;7105;43.616;1.434;2023-04-24T03:24:45;7.87;;;2.10;;
14060;SDS011;7105;43.616;1.434;2023-04-24T03:27:11;6.90;;;1.83;;
14060;SDS011;7105;43.616;1.434;2023-04-24T03:29:36;6.00;;;2.20;;
14060;SDS011;7105;43.616;1.434;2023-04-24T03:32:02;4.67;;;2.30;;
14060;SDS011;7105;43.616;1.434;2023-04-24T03:34:28;6.77;;;1.80;;
14060;SDS011;7105;43.616;1.434;2023-04-24T03:36:53;7.63;;;2.77;;
14060;SDS011;7105;43.616;1.434;2023-04-24T03:39:19;8.60;;;2.20;;
14060;SDS011;7105;43.616;1.434;2023-04-24T03:41:44;8.00;;;2.10;;
14060;SDS011;7105;43.616;1.434;2023-04-24T03:44:10;11.17;;;2.27;;
14060;SDS011;7105;43.616;1.434;2023-04-24T03:46:36;3.33;;;2.03;;
14060;SDS011;7105;43.616;1.434;2023-04-24T03:49:01;6.30;;;2.50;;
14060;SDS011;7105;43.616;1.434;2023-04-24T03:51:27;4.80;;;2.43;;
14060;SDS011;7105;43.616;1.434;2023-04-24T03:53:55;9.67;;;2.70;;
14060;SDS011;7105;43.616;1.434;2023-04-24T03:56:20;6.63;;;3.00;;
14060;SDS011;7105;43.616;1.434;2023-04-24T03:58:46;6.10;;;2.37;;
14060;SDS011;7105;43.616;1.434;2023-04-24T04:01:12;5.77;;;2.10;;
14060;SDS011;7105;43.616;1.434;2023-04-24T04:03:38;8.40;;;2.37;;
14060;SDS011;7105;43.616;1.434;2023-04-24T04:06:03;8.03;;;2.47;;
14060;SDS011;7105;43.616;1.434;2023-04-24T04:08:29;6.53;;;2.20;;
14060;SDS011;7105;43.616;1.434;2023-04-24T04:10:55;8.20;;;2.10;;
14060;SDS011;7105;43.616;1.434;2023-04-24T04:13:21;7.23;;;2.20;;
14060;SDS011;7105;43.616;1.434;2023-04-24T04:15:46;4.23;;;2.07;;
14060;SDS011;7105;43.616;1.434;2023-04-24T04:18:12;4.90;;;2.10;;
14060;SDS011;7105;43.616;1.434;2023-04-24T04:20:38;7.30;;;2.30;;
14060;SDS011;7105;43.616;1.434;2023-04-24T04:23:03;8.33;;;2.60;;
14060;SDS011;7105;43.616;1.434;2023-04-24T04:25:29;9.60;;;2.33;;
14060;SDS011;7105;43.616;1.434;2023-04-24T04:27:54;7.43;;;2.43;;
14060;SDS011;7105;43.616;1.434;2023-04-24T04:30:20;5.07;;;2.40;;
14060;SDS011;7105;43.616;1.434;2023-04-24T04:32:46;5.03;;;2.03;;
14060;SDS011;7105;43.616;1.434;2023-04-24T04:35:12;7.63;;;2.30;;
14060;SDS011;7105;43.616;1.434;2023-04-24T04:37:37;6.53;;;2.50;;
14060;SDS011;7105;43.616;1.434;2023-04-24T04:40:05;6.60;;;2.43;;
14060;SDS011;7105;43.616;1.434;2023-04-24T04:42:31;6.63;;;2.60;;
14060;SDS011;7105;43.616;1.434;2023-04-24T04:44:59;6.50;;;2.50;;
14060;SDS011;7105;43.616;1.434;2023-04-24T04:47:25;5.57;;;2.83;;
14060;SDS011;7105;43.616;1.434;2023-04-24T04:49:52;7.00;;;2.30;;
14060;SDS011;7105;43.616;1.434;2023-04-24T04:52:18;8.27;;;2.43;;
14060;SDS011;7105;43.616;1.434;2023-04-24T04:54:44;5.73;;;2.27;;
14060;SDS011;7105;43.616;1.434;2023-04-24T04:57:09;7.10;;;2.20;;
14060;SDS011;7105;43.616;1.434;2023-04-24T04:59:35;5.37;;;2.20;;
14060;SDS011;7105;43.616;1.434;2023-04-24T05:02:02;5.10;;;2.30;;
14060;SDS011;7105;43.616;1.434;2023-04-24T05:04:28;6.10;;;2.30;;
14060;SDS011;7105;43.616;1.434;2023-04-24T05:06:53;6.97;;;2.30;;
14060;SDS011;7105;43.616;1.434;2023-04-24T05:09:19;4.00;;;2.20;;
14060;SDS011;7105;43.616;1.434;2023-04-24T05:11:45;10.27;;;2.50;;
14060;SDS011;7105;43.616;1.434;2023-04-24T05:14:10;7.00;;;2.87;;
14060;SDS011;7105;43.616;1.434;2023-04-24T05:16:37;8.37;;;2.60;;
14060;SDS011;7105;43.616;1.434;2023-04-24T05:19:03;8.43;;;2.50;;
14060;SDS011;7105;43.616;1.434;2023-04-24T05:21:29;6.90;;;2.40;;
14060;SDS011;7105;43.616;1.434;2023-04-24T05:23:56;9.20;;;2.30;;
14060;SDS011;7105;43.616;1.434;2023-04-24T05:26:22;6.63;;;2.80;;
14060;SDS011;7105;43.616;1.434;2023-04-24T05:28:48;5.67;;;2.13;;
14060;SDS011;7105;43.616;1.434;2023-04-24T05:31:14;7.23;;;2.73;;
14060;SDS011;7105;43.616;1.434;2023-04-24T05:33:40;7.10;;;2.60;;
14060;SDS011;7105;43.616;1.434;2023-04-24T05:36:06;8.90;;;2.90;;
14060;SDS011;7105;43.616;1.434;2023-04-24T05:38:32;10.33;;;2.93;;
14060;SDS011;7105;43.616;1.434;2023-04-24T05:40:58;7.03;;;2.90;;
14060;SDS011;7105;43.616;1.434;2023-04-24T05:43:23;10.40;;;2.93;;
14060;SDS011;7105;43.616;1.434;2023-04-24T05:45:50;11.20;;;3.23;;
14060;SDS011;7105;43.616;1.434;2023-04-24T05:48:15;5.47;;;2.77;;
14060;SDS011;7105;43.616;1.434;2023-04-24T05:50:41;8.10;;;2.93;;
14060;SDS011;7105;43.616;1.434;2023-04-24T05:53:07;7.13;;;2.80;;
14060;SDS011;7105;43.616;1.434;2023-04-24T05:55:32;6.63;;;2.63;;
14060;SDS011;7105;43.616;1.434;2023-04-24T05:57:58;7.73;;;2.30;;
14060;SDS011;7105;43.616;1.434;2023-04-24T06:00:25;10.30;;;2.60;;
14060;SDS011;7105;43.616;1.434;2023-04-24T06:02:51;9.03;;;2.90;;
14060;SDS011;7105;43.616;1.434;2023-04-24T06:05:17;7.67;;;2.27;;
14060;SDS011;7105;43.616;1.434;2023-04-24T06:07:44;8.87;;;2.60;;
14060;SDS011;7105;43.616;1.434;2023-04-24T06:10:10;7.53;;;2.40;;
14060;SDS011;7105;43.616;1.434;2023-04-24T06:12:35;10.37;;;2.50;;
14060;SDS011;7105;43.616;1.434;2023-04-24T06:15:02;7.00;;;2.20;;
14060;SDS011;7105;43.616;1.434;2023-04-24T06:17:28;8.03;;;2.47;;
14060;SDS011;7105;43.616;1.434;2023-04-24T06:19:54;6.63;;;2.70;;
14060;SDS011;7105;43.616;1.434;2023-04-24T06:22:20;8.60;;;2.80;;
14060;SDS011;7105;43.616;1.434;2023-04-24T06:24:45;9.83;;;2.77;;
14060;SDS011;7105;43.616;1.434;2023-04-24T06:27:13;7.67;;;2.53;;
14060;SDS011;7105;43.616;1.434;2023-04-24T06:29:39;7.57;;;2.40;;
14060;SDS011;7105;43.616;1.434;2023-04-24T06:32:05;8.83;;;2.47;;
14060;SDS011;7105;43.616;1.434;2023-04-24T06:34:30;11.10;;;3.37;;
14060;SDS011;7105;43.616;1.434;2023-04-24T06:36:57;9.20;;;2.97;;
14060;SDS011;7105;43.616;1.434;2023-04-24T06:39:23;9.00;;;3.10;;
14060;SDS011;7105;43.616;1.434;2023-04-24T06:41:49;11.40;;;3.40;;
14060;SDS011;7105;43.616;1.434;2023-04-24T06:44:15;9.33;;;2.90;;
14060;SDS011;7105;43.616;1.434;2023-04-24T06:46:41;5.90;;;2.83;;
14060;SDS011;7105;43.616;1.434;2023-04-24T06:49:07;7.83;;;2.50;;
14060;SDS011;7105;43.616;1.434;2023-04-24T06:51:32;7.50;;;2.90;;
14060;SDS011;7105;43.616;1.434;2023-04-24T06:53:58;11.30;;;2.70;;
14060;SDS011;7105;43.616;1.434;2023-04-24T06:56:25;5.73;;;2.60;;
14060;SDS011;7105;43.616;1.434;2023-04-24T06:58:51;11.30;;;2.70;;
14060;SDS011;7105;43.616;1.434;2023-04-24T07:01:17;6.27;;;2.70;;
14060;SDS011;7105;43.616;1.434;2023-04-24T07:03:42;7.47;;;3.17;;
14060;SDS011;7105;43.616;1.434;2023-04-24T07:06:08;10.47;;;2.90;;
14060;SDS011;7105;43.616;1.434;2023-04-24T07:08:36;6.30;;;2.30;;
14060;SDS011;7105;43.616;1.434;2023-04-24T07:11:02;6.03;;;2.60;;
14060;SDS011;7105;43.616;1.434;2023-04-24T07:13:28;5.70;;;2.57;;
14060;SDS011;7105;43.616;1.434;2023-04-24T07:15:54;8.57;;;2.80;;
14060;SDS011;7105;43.616;1.434;2023-04-24T07:18:21;5.10;;;2.30;;
14060;SDS011;7105;43.616;1.434;2023-04-24T07:20:47;8.53;;;2.57;;
14060;SDS011;7105;43.616;1.434;2023-04-24T07:23:15;4.03;;;2.23;;
14060;SDS011;7105;43.616;1.434;2023-04-24T07:25:41;5.10;;;2.37;;
14060;SDS011;7105;43.616;1.434;2023-04-24T07:28:06;8.00;;;2.40;;
14060;SDS011;7105;43.616;1.434;2023-04-24T07:30:32;8.40;;;2.57;;
14060;SDS011;7105;43.616;1.434;2023-04-24T07:32:58;3.90;;;1.87;;
14060;SDS011;7105;43.616;1.434;2023-04-24T07:35:25;5.00;;;2.30;;
14060;SDS011;7105;43.616;1.434;2023-04-24T07:37:52;6.43;;;2.90;;
14060;SDS011;7105;43.616;1.434;2023-04-24T07:40:18;4.33;;;2.50;;
14060;SDS011;7105;43.616;1.434;2023-04-24T07:42:45;5.47;;;2.57;;
14060;SDS011;7105;43.616;1.434;2023-04-24T07:45:13;3.37;;;1.70;;
14060;SDS011;7105;43.616;1.434;2023-04-24T07:47:39;3.27;;;1.50;;
14060;SDS011;7105;43.616;1.434;2023-04-24T07:50:08;5.57;;;1.80;;
14060;SDS011;7105;43.616;1.434;2023-04-24T07:52:35;5.10;;;1.90;;
14060;SDS011;7105;43.616;1.434;2023-04-24T07:55:01;5.50;;;1.80;;
14060;SDS011;7105;43.616;1.434;2023-04-24T07:57:27;2.33;;;1.30;;
14060;SDS011;7105;43.616;1.434;2023-04-24T07:59:53;3.23;;;1.57;;
14060;SDS011;7105;43.616;1.434;2023-04-24T08:02:19;4.07;;;1.20;;
14060;SDS011;7105;43.616;1.434;2023-04-24T08:04:46;5.50;;;1.60;;
14060;SDS011;7105;43.616;1.434;2023-04-24T08:07:12;6.20;;;1.40;;
14060;SDS011;7105;43.616;1.434;2023-04-24T08:09:38;4.80;;;1.27;;
14060;SDS011;7105;43.616;1.434;2023-04-24T08:12:03;3.73;;;1.60;;
14060;SDS011;7105;43.616;1.434;2023-04-24T08:14:29;3.63;;;1.50;;
14060;SDS011;7105;43.616;1.434;2023-04-24T08:16:55;4.37;;;1.40;;
14060;SDS011;7105;43.616;1.434;2023-04-24T08:19:21;5.70;;;1.37;;
14060;SDS011;7105;43.616;1.434;2023-04-24T08:21:47;6.57;;;1.83;;
14060;SDS011;7105;43.616;1.434;2023-04-24T08:24:12;4.93;;;1.57;;
14060;SDS011;7105;43.616;1.434;2023-04-24T08:26:38;2.80;;;1.90;;
14060;SDS011;7105;43.616;1.434;2023-04-24T08:29:04;3.13;;;1.20;;
14060;SDS011;7105;43.616;1.434;2023-04-24T08:31:31;4.27;;;1.17;;
14060;SDS011;7105;43.616;1.434;2023-04-24T08:33:57;4.80;;;1.33;;
14060;SDS011;7105;43.616;1.434;2023-04-24T08:36:24;5.03;;;1.50;;
14060;SDS011;7105;43.616;1.434;2023-04-24T08:38:51;3.47;;;1.30;;
14060;SDS011;7105;43.616;1.434;2023-04-24T08:41:16;8.07;;;1.50;;
14060;SDS011;7105;43.616;1.434;2023-04-24T08:43:45;5.63;;;1.50;;
14060;SDS011;7105;43.616;1.434;2023-04-24T08:46:11;4.27;;;1.40;;
14060;SDS011;7105;43.616;1.434;2023-04-24T08:48:38;3.07;;;1.43;;
14060;SDS011;7105;43.616;1.434;2023-04-24T08:51:06;5.03;;;1.20;;
14060;SDS011;7105;43.616;1.434;2023-04-24T08:53:33;2.67;;;1.00;;
14060;SDS011;7105;43.616;1.434;2023-04-24T08:56:01;4.63;;;1.43;;
14060;SDS011;7105;43.616;1.434;2023-04-24T08:58:28;3.53;;;1.03;;
14060;SDS011;7105;43.616;1.434;2023-04-24T09:00:54;3.60;;;1.10;;
14060;SDS011;7105;43.616;1.434;2023-04-24T09:03:20;1.77;;;0.90;;
14060;SDS011;7105;43.616;1.434;2023-04-24T09:05:47;2.67;;;1.00;;
14060;SDS011;7105;43.616;1.434;2023-04-24T09:08:16;4.15;;;1.00;;
14060;SDS011;7105;43.616;1.434;2023-04-24T09:10:43;3.40;;;1.27;;
14060;SDS011;7105;43.616;1.434;2023-04-24T09:13:09;5.35;;;1.40;;
14060;SDS011;7105;43.616;1.434;2023-04-24T09:15:36;6.80;;;1.60;;
14060;SDS011;7105;43.616;1.434;2023-04-24T09:18:02;4.13;;;1.30;;
14060;SDS011;7105;43.616;1.434;2023-04-24T09:20:29;3.53;;;1.10;;
14060;SDS011;7105;43.616;1.434;2023-04-24T09:22:56;3.23;;;0.90;;
14060;SDS011;7105;43.616;1.434;2023-04-24T09:25:24;4.00;;;1.00;;
14060;SDS011;7105;43.616;1.434;2023-04-24T09:27:59;3.93;;;1.17;;
14060;SDS011;7105;43.616;1.434;2023-04-24T09:30:29;4.07;;;1.20;;
14060;SDS011;7105;43.616;1.434;2023-04-24T09:33:12;6.27;;;2.87;;
14060;SDS011;7105;43.616;1.434;2023-04-24T09:35:42;6.17;;;1.70;;
14060;SDS011;7105;43.616;1.434;2023-04-24T09:38:13;4.07;;;1.90;;
14060;SDS011;7105;43.616;1.434;2023-04-24T09:40:38;2.63;;;0.93;;
14060;SDS011;7105;43.616;1.434;2023-04-24T09:43:05;2.57;;;1.20;;
14060;SDS011;7105;43.616;1.434;2023-04-24T09:45:36;3.13;;;1.27;;
14060;SDS011;7105;43.616;1.434;2023-04-24T09:48:03;4.20;;;1.17;;
14060;SDS011;7105;43.616;1.434;2023-04-24T09:50:30;7.23;;;2.73;;
14060;SDS011;7105;43.616;1.434;2023-04-24T09:52:57;3.67;;;1.30;;
14060;SDS011;7105;43.616;1.434;2023-04-24T09:55:24;5.30;;;1.70;;
14060;SDS011;7105;43.616;1.434;2023-04-24T09:57:51;2.90;;;1.13;;
14060;SDS011;7105;43.616;1.434;2023-04-24T10:02:50;3.27;;;1.03;;
14060;SDS011;7105;43.616;1.434;2023-04-24T10:07:59;2.70;;;1.43;;
14060;SDS011;7105;43.616;1.434;2023-04-24T10:10:27;3.10;;;1.40;;
14060;SDS011;7105;43.616;1.434;2023-04-24T10:12:54;4.43;;;1.47;;
14060;SDS011;7105;43.616;1.434;2023-04-24T10:15:20;4.70;;;1.57;;
14060;SDS011;7105;43.616;1.434;2023-04-24T10:17:49;3.13;;;1.27;;
14060;SDS011;7105;43.616;1.434;2023-04-24T10:20:22;2.40;;;1.17;;
14060;SDS011;7105;43.616;1.434;2023-04-24T10:22:49;4.03;;;1.13;;
14060;SDS011;7105;43.616;1.434;2023-04-24T10:25:16;3.53;;;1.50;;
14060;SDS011;7105;43.616;1.434;2023-04-24T10:27:52;4.67;;;1.70;;
14060;SDS011;7105;43.616;1.434;2023-04-24T10:30:22;4.27;;;1.50;;
14060;SDS011;7105;43.616;1.434;2023-04-24T10:32:48;3.50;;;1.10;;
14060;SDS011;7105;43.616;1.434;2023-04-24T10:35:14;2.50;;;1.20;;
14060;SDS011;7105;43.616;1.434;2023-04-24T10:40:16;3.23;;;1.10;;
14060;SDS011;7105;43.616;1.434;2023-04-24T10:42:51;3.67;;;1.20;;
14060;SDS011;7105;43.616;1.434;2023-04-24T10:45:20;3.47;;;1.63;;
14060;SDS011;7105;43.616;1.434;2023-04-24T10:47:56;3.83;;;1.50;;
14060;SDS011;7105;43.616;1.434;2023-04-24T10:50:48;5.75;;;1.58;;
14060;SDS011;7105;43.616;1.434;2023-04-24T10:53:17;3.93;;;1.57;;
14060;SDS011;7105;43.616;1.434;2023-04-24T10:55:48;3.23;;;1.17;;
14060;SDS011;7105;43.616;1.434;2023-04-24T10:58:44;3.20;;;1.20;;
14060;SDS011;7105;43.616;1.434;2023-04-24T11:01:28;3.60;;;1.00;;
14060;SDS011;7105;43.616;1.434;2023-04-24T11:03:54;3.60;;;1.40;;
14060;SDS011;7105;43.616;1.434;2023-04-24T11:06:34;3.53;;;1.47;;
14060;SDS011;7105;43.616;1.434;2023-04-24T11:09:08;2.07;;;1.07;;
14060;SDS011;7105;43.616;1.434;2023-04-24T11:11:37;4.67;;;1.50;;
14060;SDS011;7105;43.616;1.434;2023-04-24T11:14:09;4.13;;;1.20;;
14060;SDS011;7105;43.616;1.434;2023-04-24T11:16:36;4.67;;;1.40;;
14060;SDS011;7105;43.616;1.434;2023-04-24T11:21:44;4.40;;;1.27;;
14060;SDS011;7105;43.616;1.434;2023-04-24T11:24:21;5.00;;;1.50;;
14060;SDS011;7105;43.616;1.434;2023-04-24T11:27:17;4.70;;;1.13;;
14060;SDS011;7105;43.616;1.434;2023-04-24T11:32:14;3.13;;;1.30;;
14060;SDS011;7105;43.616;1.434;2023-04-24T11:40:07;4.70;;;1.40;;
14060;SDS011;7105;43.616;1.434;2023-04-24T11:42:37;3.80;;;1.20;;
14060;SDS011;7105;43.616;1.434;2023-04-24T11:45:08;4.80;;;1.00;;
14060;SDS011;7105;43.616;1.434;2023-04-24T11:47:35;5.50;;;1.43;;
14060;SDS011;7105;43.616;1.434;2023-04-24T11:50:02;5.20;;;1.43;;
14060;SDS011;7105;43.616;1.434;2023-04-24T11:52:33;4.43;;;1.30;;
14060;SDS011;7105;43.616;1.434;2023-04-24T11:55:02;4.23;;;1.17;;
14060;SDS011;7105;43.616;1.434;2023-04-24T11:57:28;2.47;;;1.20;;
14060;SDS011;7105;43.616;1.434;2023-04-24T11:59:59;5.57;;;1.37;;
14060;SDS011;7105;43.616;1.434;2023-04-24T12:02:29;2.53;;;1.30;;
14060;SDS011;7105;43.616;1.434;2023-04-24T12:04:55;5.10;;;1.63;;
14060;SDS011;7105;43.616;1.434;2023-04-24T12:07:21;2.27;;;1.10;;
14060;SDS011;7105;43.616;1.434;2023-04-24T12:09:55;2.80;;;1.33;;
14060;SDS011;7105;43.616;1.434;2023-04-24T12:12:24;3.00;;;1.40;;
14060;SDS011;7105;43.616;1.434;2023-04-24T12:14:55;2.90;;;1.10;;
14060;SDS011;7105;43.616;1.434;2023-04-24T12:17:25;5.03;;;1.47;;
14060;SDS011;7105;43.616;1.434;2023-04-24T12:19:56;5.03;;;1.27;;
14060;SDS011;7105;43.616;1.434;2023-04-24T12:25:19;4.90;;;1.20;;
14060;SDS011;7105;43.616;1.434;2023-04-24T12:27:57;4.33;;;1.50;;
14060;SDS011;7105;43.616;1.434;2023-04-24T12:30:48;4.40;;;1.77;;
14060;SDS011;7105;43.616;1.434;2023-04-24T12:33:20;2.97;;;1.17;;
14060;SDS011;7105;43.616;1.434;2023-04-24T12:35:47;2.83;;;1.20;;
14060;SDS011;7105;43.616;1.434;2023-04-24T12:38:16;2.70;;;1.40;;
14060;SDS011;7105;43.616;1.434;2023-04-24T12:40:47;4.83;;;1.37;;
14060;SDS011;7105;43.616;1.434;2023-04-24T12:43:25;3.07;;;1.20;;
14060;SDS011;7105;43.616;1.434;2023-04-24T12:45:51;2.43;;;1.10;;
14060;SDS011;7105;43.616;1.434;2023-04-24T12:48:17;4.17;;;1.00;;
14060;SDS011;7105;43.616;1.434;2023-04-24T12:50:43;2.17;;;1.07;;
14060;SDS011;7105;43.616;1.434;2023-04-24T12:53:09;5.47;;;1.27;;
14060;SDS011;7105;43.616;1.434;2023-04-24T12:55:35;2.90;;;1.10;;
14060;SDS011;7105;43.616;1.434;2023-04-24T12:58:02;3.22;;;1.20;;
14060;SDS011;7105;43.616;1.434;2023-04-24T13:00:28;1.73;;;0.90;;
14060;SDS011;7105;43.616;1.434;2023-04-24T13:02:54;4.05;;;1.20;;
14060;SDS011;7105;43.616;1.434;2023-04-24T13:05:20;3.58;;;1.40;;
14060;SDS011;7105;43.616;1.434;2023-04-24T13:07:46;4.27;;;1.53;;
14060;SDS011;7105;43.616;1.434;2023-04-24T13:10:11;2.10;;;0.90;;
14060;SDS011;7105;43.616;1.434;2023-04-24T13:12:38;3.72;;;1.23;;
14060;SDS011;7105;43.616;1.434;2023-04-24T13:15:04;2.45;;;1.10;;
14060;SDS011;7105;43.616;1.434;2023-04-24T13:17:30;1.80;;;0.98;;
14060;SDS011;7105;43.616;1.434;2023-04-24T13:19:56;3.13;;;0.90;;
14060;SDS011;7105;43.616;1.434;2023-04-24T13:22:21;2.77;;;1.20;;
14060;SDS011;7105;43.616;1.434;2023-04-24T13:24:47;2.63;;;0.90;;
14060;SDS011;7105;43.616;1.434;2023-04-24T13:27:14;2.23;;;1.07;;
14060;SDS011;7105;43.616;1.434;2023-04-24T13:29:40;3.10;;;1.10;;
14060;SDS011;7105;43.616;1.434;2023-04-24T13:32:05;3.67;;;1.20;;
14060;SDS011;7105;43.616;1.434;2023-04-24T13:34:31;2.95;;;1.00;;
14060;SDS011;7105;43.616;1.434;2023-04-24T13:36:57;3.47;;;1.20;;
14060;SDS011;7105;43.616;1.434;2023-04-24T13:39:23;4.07;;;1.30;;
14060;SDS011;7105;43.616;1.434;2023-04-24T13:41:50;1.93;;;1.20;;
14060;SDS011;7105;43.616;1.434;2023-04-24T13:44:16;2.50;;;0.80;;
14060;SDS011;7105;43.616;1.434;2023-04-24T13:46:43;4.15;;;1.83;;
14060;SDS011;7105;43.616;1.434;2023-04-24T13:49:11;2.45;;;1.15;;
14060;SDS011;7105;43.616;1.434;2023-04-24T13:51:38;3.17;;;1.17;;
14060;SDS011;7105;43.616;1.434;2023-04-24T13:54:05;4.68;;;1.10;;
14060;SDS011;7105;43.616;1.434;2023-04-24T13:56:30;3.53;;;1.20;;
14060;SDS011;7105;43.616;1.434;2023-04-24T13:58:56;2.38;;;1.02;;
14060;SDS011;7105;43.616;1.434;2023-04-24T14:01:22;3.38;;;1.15;;
14060;SDS011;7105;43.616;1.434;2023-04-24T14:03:54;3.40;;;1.33;;
14060;SDS011;7105;43.616;1.434;2023-04-24T14:06:20;2.27;;;1.20;;
14060;SDS011;7105;43.616;1.434;2023-04-24T14:08:47;3.83;;;1.00;;
14060;SDS011;7105;43.616;1.434;2023-04-24T14:11:13;2.75;;;1.27;;
14060;SDS011;7105;43.616;1.434;2023-04-24T14:13:40;2.80;;;1.15;;
14060;SDS011;7105;43.616;1.434;2023-04-24T14:16:06;2.67;;;1.00;;
14060;SDS011;7105;43.616;1.434;2023-04-24T14:18:32;4.93;;;1.30;;
14060;SDS011;7105;43.616;1.434;2023-04-24T14:20:58;2.60;;;1.30;;
14060;SDS011;7105;43.616;1.434;2023-04-24T14:23:24;3.88;;;1.48;;
14060;SDS011;7105;43.616;1.434;2023-04-24T14:25:49;4.40;;;1.42;;
14060;SDS011;7105;43.616;1.434;2023-04-24T14:28:17;1.95;;;1.23;;
14060;SDS011;7105;43.616;1.434;2023-04-24T14:30:44;4.13;;;1.45;;
14060;SDS011;7105;43.616;1.434;2023-04-24T14:33:10;4.18;;;1.33;;
14060;SDS011;7105;43.616;1.434;2023-04-24T14:35:37;3.13;;;1.10;;
14060;SDS011;7105;43.616;1.434;2023-04-24T14:38:05;3.65;;;1.45;;
14060;SDS011;7105;43.616;1.434;2023-04-24T14:40:31;2.42;;;0.93;;
14060;SDS011;7105;43.616;1.434;2023-04-24T14:42:57;1.73;;;1.10;;
14060;SDS011;7105;43.616;1.434;2023-04-24T14:45:23;1.98;;;1.10;;
14060;SDS011;7105;43.616;1.434;2023-04-24T14:47:50;3.67;;;1.20;;
14060;SDS011;7105;43.616;1.434;2023-04-24T14:50:16;3.67;;;1.08;;
14060;SDS011;7105;43.616;1.434;2023-04-24T14:52:41;4.13;;;1.02;;
14060;SDS011;7105;43.616;1.434;2023-04-24T14:55:07;2.03;;;1.20;;
14060;SDS011;7105;43.616;1.434;2023-04-24T14:57:33;4.68;;;1.30;;
14060;SDS011;7105;43.616;1.434;2023-04-24T15:00:00;3.42;;;1.10;;
14060;SDS011;7105;43.616;1.434;2023-04-24T15:02:28;3.08;;;1.35;;
14060;SDS011;7105;43.616;1.434;2023-04-24T15:04:54;2.88;;;1.13;;
14060;SDS011;7105;43.616;1.434;2023-04-24T15:07:19;2.58;;;1.17;;
14060;SDS011;7105;43.616;1.434;2023-04-24T15:09:45;2.70;;;1.30;;
14060;SDS011;7105;43.616;1.434;2023-04-24T15:12:12;5.10;;;1.47;;
14060;SDS011;7105;43.616;1.434;2023-04-24T15:14:38;2.10;;;1.10;;
14060;SDS011;7105;43.616;1.434;2023-04-24T15:17:04;4.20;;;2.20;;
14060;SDS011;7105;43.616;1.434;2023-04-24T15:19:31;3.57;;;1.37;;